createdAt,value
2019-04-21T00:02:03.392Z,52.50
2019-04-21T00:04:48.229Z,52.50
2019-04-21T00:07:19.952Z,52.70
2019-04-21T00:09:53.410Z,52.60
2019-04-21T00:12:22.061Z,52.90
2019-04-21T00:15:01.927Z,52.90
2019-04-21T00:17:25.293Z,52.90
2019-04-21T00:20:11.496Z,52.60
2019-04-21T00:22:41.388Z,52.20
2019-04-21T00:25:13.956Z,52.60
2019-04-21T00:27:46.519Z,52.40
2019-04-21T00:30:21.769Z,52.60
2019-04-21T00:32:41.897Z,52.30
2019-04-21T00:35:06.391Z,52.70
2019-04-21T00:37:48.288Z,52.50
2019-04-21T00:40:25.690Z,52.50
2019-04-21T00:42:48.429Z,52.70
2019-04-21T00:45:15.875Z,52.50
2019-04-21T00:47:52.211Z,52.70
2019-04-21T00:51:07.974Z,52.90
2019-04-21T00:53:23.615Z,52.60
2019-04-21T00:55:59.788Z,52.80
2019-04-21T01:00:57.061Z,52.60
2019-04-21T01:03:32.368Z,52.70
2019-04-21T01:06:14.344Z,52.70
2019-04-21T01:08:31.282Z,53.00
2019-04-21T01:10:54.136Z,52.80
2019-04-21T01:13:36.655Z,52.40
2019-04-21T01:15:59.428Z,52.60
2019-04-21T01:18:34.210Z,52.40
2019-04-21T01:20:40.259Z,52.50
2019-04-21T01:23:10.448Z,52.60
2019-04-21T01:25:51.574Z,52.40
2019-04-21T01:28:24.116Z,52.60
2019-04-21T01:30:59.451Z,52.60
2019-04-21T01:33:33.432Z,52.80
2019-04-21T01:36:00.848Z,53.00
2019-04-21T01:38:38.136Z,52.90
2019-04-21T01:41:08.625Z,53.00
2019-04-21T01:43:45.811Z,53.30
2019-04-21T01:46:15.352Z,53.40
2019-04-21T01:48:40.102Z,53.30
2019-04-21T01:51:14.324Z,53.40
2019-04-21T01:54:03.999Z,53.30
2019-04-21T01:56:30.598Z,53.30
2019-04-21T01:58:51.501Z,53.50
2019-04-21T02:01:36.059Z,53.60
2019-04-21T02:04:02.832Z,53.70
2019-04-21T02:06:41.089Z,53.80
2019-04-21T02:09:02.127Z,53.70
2019-04-21T02:11:40.928Z,54.00
2019-04-21T02:14:12.927Z,54.00
2019-04-21T02:16:34.568Z,54.00
2019-04-21T02:18:58.852Z,54.00
2019-04-21T02:21:31.865Z,54.00
2019-04-21T02:24:15.217Z,53.90
2019-04-21T02:26:37.553Z,54.30
2019-04-21T02:29:10.164Z,54.40
2019-04-21T02:31:45.271Z,54.50
2019-04-21T02:36:52.985Z,54.90
2019-04-21T02:39:35.488Z,55.00
2019-04-21T02:41:47.402Z,55.00
2019-04-21T02:44:22.925Z,55.10
2019-04-21T02:46:42.043Z,55.40
2019-04-21T02:49:32.684Z,55.30
2019-04-21T02:54:40.648Z,55.50
2019-04-21T02:56:57.315Z,55.70
2019-04-21T03:01:56.643Z,55.90
2019-04-21T03:04:34.724Z,56.00
2019-04-21T03:07:13.079Z,56.90
2019-04-21T03:09:39.459Z,56.70
2019-04-21T03:12:11.196Z,57.00
2019-04-21T03:17:18.280Z,56.90
2019-04-21T03:19:55.677Z,56.60
2019-04-21T03:22:21.022Z,56.50
2019-04-21T03:29:48.647Z,56.90
2019-04-21T03:32:47.998Z,57.20
2019-04-21T03:37:23.161Z,57.40
2019-04-21T03:44:45.613Z,57.70
2019-04-21T03:47:22.901Z,57.50
2019-04-21T03:52:27.816Z,57.90
2019-04-21T03:58:14.826Z,58.10
2019-04-21T04:00:42.556Z,58.20
2019-04-21T04:03:10.597Z,58.10
2019-04-21T04:06:02.026Z,58.40
2019-04-21T04:08:37.257Z,58.20
2019-04-21T04:10:51.924Z,58.40
2019-04-21T04:13:19.716Z,58.60
2019-04-21T04:16:03.797Z,58.60
2019-04-21T04:18:28.377Z,58.60
2019-04-21T04:21:00.337Z,58.80
2019-04-21T04:23:21.131Z,58.70
2019-04-21T04:25:49.355Z,59.00
2019-04-21T04:28:25.684Z,59.00
2019-04-21T04:33:27.900Z,60.00
2019-04-21T04:36:13.122Z,60.40
2019-04-21T04:41:12.101Z,61.40
2019-04-21T04:45:58.876Z,61.70
2019-04-21T04:48:27.984Z,62.50
2019-04-21T04:53:42.658Z,62.30
2019-04-21T04:56:08.103Z,61.60
2019-04-21T05:01:16.989Z,62.40
2019-04-21T05:03:43.981Z,62.90
2019-04-21T05:11:46.784Z,63.60
2019-04-21T05:16:46.901Z,63.80
2019-04-21T05:19:14.895Z,63.10
2019-04-21T05:21:39.437Z,63.30
2019-04-21T05:24:08.031Z,63.40
2019-04-21T05:26:34.418Z,63.60
2019-04-21T05:29:00.694Z,63.60
2019-04-21T05:31:46.325Z,63.20
2019-04-21T05:34:18.924Z,62.80
2019-04-21T05:36:52.324Z,63.70
2019-04-21T05:39:37.545Z,62.80
2019-04-21T05:42:00.945Z,62.70
2019-04-21T05:44:50.060Z,63.20
2019-04-21T05:49:45.238Z,62.60
2019-04-21T05:52:07.793Z,62.10
2019-04-21T05:55:09.572Z,62.00
2019-04-21T05:57:33.657Z,62.00
2019-04-21T06:00:08.863Z,62.40
2019-04-21T06:02:35.209Z,62.50
2019-04-21T06:05:26.289Z,61.80
2019-04-21T06:07:41.267Z,61.70
2019-04-21T06:10:10.636Z,61.60
2019-04-21T06:12:46.244Z,62.10
2019-04-21T06:15:08.579Z,61.90
2019-04-21T06:17:44.678Z,61.60
2019-04-21T06:20:17.139Z,60.80
2019-04-21T06:22:38.685Z,60.60
2019-04-21T06:27:40.661Z,60.50
2019-04-21T06:30:04.116Z,60.10
2019-04-21T06:37:53.504Z,59.50
2019-04-21T06:40:30.806Z,59.00
2019-04-21T06:43:09.032Z,58.80
2019-04-21T06:45:27.370Z,58.60
2019-04-21T06:47:59.504Z,58.60
2019-04-21T06:50:22.871Z,58.20
2019-04-21T06:52:59.703Z,58.40
2019-04-21T06:55:20.104Z,58.40
2019-04-21T06:57:56.014Z,57.40
2019-04-21T07:00:22.379Z,57.50
2019-04-21T07:03:04.710Z,57.00
2019-04-21T07:05:26.205Z,56.90
2019-04-21T07:08:11.300Z,56.50
2019-04-21T07:12:50.989Z,57.10
2019-04-21T07:15:24.911Z,56.20
2019-04-21T07:17:53.650Z,55.50
2019-04-21T07:20:24.783Z,55.30
2019-04-21T07:22:54.169Z,55.20
2019-04-21T07:25:28.615Z,55.00
2019-04-21T07:27:52.022Z,55.50
2019-04-21T07:30:31.478Z,54.00
2019-04-21T07:33:09.221Z,54.60
2019-04-21T07:35:28.510Z,54.60
2019-04-21T07:37:57.684Z,54.00
2019-04-21T07:40:24.815Z,53.50
2019-04-21T07:42:54.181Z,53.10
2019-04-21T07:45:25.377Z,53.00
2019-04-21T07:48:20.352Z,52.70
2019-04-21T07:50:51.941Z,52.90
2019-04-21T07:53:48.135Z,52.50
2019-04-21T07:55:49.609Z,51.30
2019-04-21T07:58:35.418Z,51.60
2019-04-21T08:01:12.421Z,51.40
2019-04-21T08:03:43.869Z,51.20
2019-04-21T08:06:12.259Z,51.90
2019-04-21T08:08:38.653Z,50.20
2019-04-21T08:11:04.532Z,51.30
2019-04-21T08:13:39.868Z,50.60
2019-04-21T08:16:10.797Z,50.00
2019-04-21T08:18:40.012Z,49.90
2019-04-21T08:21:06.096Z,49.40
2019-04-21T08:23:40.231Z,48.90
2019-04-21T08:26:10.351Z,49.40
2019-04-21T08:28:40.655Z,48.70
2019-04-21T08:31:14.601Z,48.70
2019-04-21T08:36:17.810Z,48.50
2019-04-21T08:38:45.793Z,47.30
2019-04-21T08:46:12.981Z,46.20
2019-04-21T08:48:43.909Z,46.40
2019-04-21T08:51:26.160Z,47.00
2019-04-21T08:53:49.117Z,46.50
2019-04-21T08:56:31.992Z,46.60
2019-04-21T08:59:13.869Z,45.70
2019-04-21T09:01:36.433Z,45.70
2019-04-21T09:04:13.207Z,45.00
2019-04-21T09:06:54.109Z,44.40
2019-04-21T09:09:12.549Z,44.60
2019-04-21T09:11:44.523Z,44.50
2019-04-21T09:14:13.200Z,44.70
2019-04-21T09:16:36.988Z,43.60
2019-04-21T09:19:11.471Z,43.90
2019-04-21T09:21:45.542Z,43.60
2019-04-21T09:24:13.384Z,42.60
2019-04-21T09:26:43.545Z,42.90
2019-04-21T09:29:05.661Z,43.70
2019-04-21T09:31:30.913Z,43.30
2019-04-21T09:33:59.327Z,42.20
2019-04-21T09:36:33.983Z,42.10
2019-04-21T09:39:03.827Z,42.20
2019-04-21T09:41:27.744Z,41.60
2019-04-21T09:43:57.537Z,41.60
2019-04-21T09:46:27.514Z,41.90
2019-04-21T09:49:02.120Z,42.60
2019-04-21T09:51:26.368Z,41.60
2019-04-21T09:54:01.945Z,41.40
2019-04-21T09:56:34.352Z,40.60
2019-04-21T09:59:04.052Z,41.30
2019-04-21T10:01:36.790Z,40.80
2019-04-21T10:03:59.844Z,40.60
2019-04-21T10:06:26.120Z,40.60
2019-04-21T10:08:58.631Z,40.50
2019-04-21T10:11:25.012Z,39.40
2019-04-21T10:13:53.593Z,41.10
2019-04-21T10:16:26.868Z,40.50
2019-04-21T10:18:56.680Z,39.10
2019-04-21T10:21:27.592Z,38.50
2019-04-21T10:23:55.837Z,37.70
2019-04-21T10:26:24.439Z,39.30
2019-04-21T10:28:53.042Z,39.00
2019-04-21T10:31:22.710Z,37.40
2019-04-21T10:33:52.584Z,37.70
2019-04-21T10:36:21.204Z,37.60
2019-04-21T10:38:53.097Z,37.30
2019-04-21T10:41:21.387Z,37.60
2019-04-21T10:43:51.270Z,36.60
2019-04-21T10:46:19.879Z,36.50
2019-04-21T10:48:48.802Z,36.40
2019-04-21T10:51:17.404Z,36.20
2019-04-21T10:53:50.878Z,35.80
2019-04-21T10:56:27.199Z,36.20
2019-04-21T10:58:49.909Z,37.20
2019-04-21T11:01:21.022Z,36.20
2019-04-21T11:03:55.120Z,36.40
2019-04-21T11:06:24.468Z,36.70
2019-04-21T11:12:02.025Z,35.90
2019-04-21T11:14:31.491Z,36.60
2019-04-21T11:17:00.539Z,36.50
2019-04-21T11:19:30.574Z,36.50
2019-04-21T11:22:00.863Z,36.40
2019-04-21T11:24:31.176Z,35.90
2019-04-21T11:27:00.358Z,37.10
2019-04-21T11:29:31.022Z,35.50
2019-04-21T11:32:00.897Z,35.20
2019-04-21T11:34:29.720Z,36.40
2019-04-21T11:36:58.485Z,36.20
2019-04-21T11:39:38.646Z,35.30
2019-04-21T11:41:59.600Z,35.90
2019-04-21T11:44:29.062Z,36.30
2019-04-21T11:46:58.381Z,35.20
2019-04-21T11:49:30.489Z,35.10
2019-04-21T11:51:58.626Z,35.50
2019-04-21T11:54:28.753Z,35.70
2019-04-21T11:56:59.191Z,35.90
2019-04-21T11:59:27.992Z,35.10
2019-04-21T12:01:57.279Z,34.50
2019-04-21T12:04:27.393Z,34.70
2019-04-21T12:06:57.749Z,33.80
2019-04-21T12:09:27.340Z,34.10
2019-04-21T12:11:57.010Z,34.60
2019-04-21T12:14:25.992Z,33.70
2019-04-21T12:16:55.174Z,34.00
2019-04-21T12:19:24.920Z,34.70
2019-04-21T12:22:05.022Z,33.60
2019-04-21T12:24:25.069Z,33.40
2019-04-21T12:26:55.993Z,33.40
2019-04-21T12:29:26.940Z,33.90
2019-04-21T12:32:03.508Z,35.20
2019-04-21T12:34:32.226Z,34.70
2019-04-21T12:37:01.233Z,36.80
2019-04-21T12:39:30.554Z,34.30
2019-04-21T12:42:00.527Z,33.70
2019-04-21T12:44:29.579Z,33.10
2019-04-21T12:46:58.278Z,34.00
2019-04-21T12:49:29.822Z,33.70
2019-04-21T12:51:59.590Z,34.10
2019-04-21T12:54:29.630Z,34.40
2019-04-21T12:56:59.189Z,33.80
2019-04-21T12:59:29.682Z,33.60
2019-04-21T13:01:59.081Z,34.10
2019-04-21T13:04:27.829Z,33.80
2019-04-21T13:06:59.374Z,32.90
2019-04-21T13:09:30.353Z,33.90
2019-04-21T13:11:59.487Z,32.60
2019-04-21T13:14:27.998Z,32.90
2019-04-21T13:16:57.321Z,33.10
2019-04-21T13:19:27.248Z,32.10
2019-04-21T13:21:56.206Z,32.70
2019-04-21T13:24:26.067Z,31.80
2019-04-21T13:26:58.433Z,32.30
2019-04-21T13:29:26.000Z,31.80
2019-04-21T13:31:54.530Z,31.70
2019-04-21T13:34:24.127Z,32.40
2019-04-21T13:36:53.964Z,31.90
2019-04-21T13:39:50.379Z,31.30
2019-04-21T13:42:14.490Z,31.80
2019-04-21T13:44:35.325Z,31.90
2019-04-21T13:47:04.865Z,30.60
2019-04-21T13:49:34.978Z,30.80
2019-04-21T13:52:04.824Z,32.10
2019-04-21T13:54:33.717Z,30.80
2019-04-21T13:57:02.866Z,32.70
2019-04-21T13:59:31.952Z,31.50
2019-04-21T14:02:00.630Z,32.00
2019-04-21T14:04:29.618Z,31.40
2019-04-21T14:06:58.368Z,32.40
2019-04-21T14:09:37.744Z,32.70
2019-04-21T14:11:57.250Z,32.40
2019-04-21T14:14:26.302Z,32.90
2019-04-21T14:16:56.065Z,31.20
2019-04-21T14:19:25.569Z,31.50
2019-04-21T14:21:55.204Z,32.20
2019-04-21T14:24:24.623Z,32.90
2019-04-21T14:26:54.327Z,31.90
2019-04-21T14:29:23.805Z,32.30
2019-04-21T14:31:52.672Z,32.20
2019-04-21T14:34:21.817Z,33.00
2019-04-21T14:36:50.889Z,32.80
2019-04-21T14:39:20.827Z,32.40
2019-04-21T14:41:50.523Z,31.90
2019-04-21T14:44:20.614Z,31.50
2019-04-21T14:46:51.327Z,32.00
2019-04-21T14:49:37.552Z,31.40
2019-04-21T14:52:17.018Z,31.70
2019-04-21T14:54:50.924Z,31.50
2019-04-21T14:57:21.105Z,31.10
2019-04-21T14:59:51.096Z,31.20
2019-04-21T15:02:20.269Z,31.10
2019-04-21T15:04:49.283Z,31.90
2019-04-21T15:07:19.244Z,31.80
2019-04-21T15:10:01.429Z,31.80
2019-04-21T15:12:18.258Z,32.20
2019-04-21T15:14:47.669Z,32.10
2019-04-21T15:17:19.546Z,32.40
2019-04-21T15:19:50.923Z,33.60
2019-04-21T15:22:18.308Z,33.50
2019-04-21T15:24:48.130Z,32.90
2019-04-21T15:27:16.918Z,32.40
2019-04-21T15:29:46.762Z,33.70
2019-04-21T15:32:16.834Z,33.60
2019-04-21T15:34:45.694Z,33.70
2019-04-21T15:37:15.713Z,34.80
2019-04-21T15:39:44.762Z,33.80
2019-04-21T15:42:14.594Z,33.70
2019-04-21T15:44:43.178Z,33.60
2019-04-21T15:47:11.772Z,34.20
2019-04-21T15:50:02.890Z,34.30
2019-04-21T15:52:27.965Z,33.50
2019-04-21T15:55:05.293Z,33.30
2019-04-21T15:57:44.618Z,34.30
2019-04-21T16:00:16.391Z,33.90
2019-04-21T16:02:46.762Z,34.00
2019-04-21T16:05:19.736Z,34.00
2019-04-21T16:07:48.230Z,34.10
2019-04-21T16:10:30.921Z,34.50
2019-04-21T16:12:49.889Z,33.50
2019-04-21T16:15:20.780Z,34.50
2019-04-21T16:17:51.048Z,33.70
2019-04-21T16:20:21.893Z,34.50
2019-04-21T16:22:50.688Z,34.60
2019-04-21T16:25:20.942Z,34.60
2019-04-21T16:27:51.029Z,34.40
2019-04-21T16:30:21.835Z,35.10
2019-04-21T16:32:50.597Z,35.00
2019-04-21T16:35:20.417Z,34.90
2019-04-21T16:37:49.835Z,35.20
2019-04-21T16:40:19.275Z,35.40
2019-04-21T16:42:48.197Z,35.00
2019-04-21T16:45:18.957Z,35.50
2019-04-21T16:47:50.111Z,35.50
2019-04-21T16:50:19.414Z,36.10
2019-04-21T16:53:06.140Z,36.10
2019-04-21T16:55:48.993Z,35.70
2019-04-21T16:58:36.641Z,35.50
2019-04-21T17:01:18.396Z,35.20
2019-04-21T17:03:46.439Z,35.30
2019-04-21T17:06:15.310Z,35.70
2019-04-21T17:08:45.014Z,35.40
2019-04-21T17:11:19.292Z,35.10
2019-04-21T17:13:43.769Z,35.50
2019-04-21T17:16:40.808Z,35.30
2019-04-21T17:18:56.632Z,35.40
2019-04-21T17:21:14.701Z,35.60
2019-04-21T17:23:44.196Z,35.80
2019-04-21T17:26:13.200Z,36.00
2019-04-21T17:28:42.659Z,36.30
2019-04-21T17:31:12.831Z,36.40
2019-04-21T17:33:41.705Z,36.70
2019-04-21T17:36:11.291Z,37.20
2019-04-21T17:38:40.062Z,36.60
2019-04-21T17:41:15.612Z,36.70
2019-04-21T17:43:39.551Z,36.70
2019-04-21T17:46:09.050Z,37.10
2019-04-21T17:48:38.749Z,36.80
2019-04-21T17:51:17.686Z,37.10
2019-04-21T17:53:54.826Z,36.90
2019-04-21T17:56:52.279Z,37.50
2019-04-21T17:59:09.568Z,37.00
2019-04-21T18:01:43.633Z,36.80
2019-04-21T18:04:15.249Z,37.60
2019-04-21T18:06:44.271Z,37.60
2019-04-21T18:09:24.322Z,37.50
2019-04-21T18:11:46.889Z,37.50
2019-04-21T18:13:57.477Z,37.40
2019-04-21T18:16:34.201Z,38.20
2019-04-21T18:18:56.985Z,37.80
2019-04-21T18:21:30.674Z,41.10
2019-04-21T18:24:07.230Z,39.20
2019-04-21T18:26:40.681Z,39.90
2019-04-21T18:29:01.496Z,39.90
2019-04-21T18:31:33.925Z,40.20
2019-04-21T18:34:11.040Z,40.10
2019-04-21T18:36:50.299Z,40.40
2019-04-21T18:39:33.833Z,41.00
2019-04-21T18:42:04.780Z,41.00
2019-04-21T18:44:53.755Z,41.00
2019-04-21T18:47:23.623Z,41.60
2019-04-21T18:49:42.748Z,41.70
2019-04-21T18:52:22.510Z,41.30
2019-04-21T18:55:01.165Z,41.40
2019-04-21T18:57:28.825Z,41.80
2019-04-21T18:59:49.335Z,41.80
2019-04-21T19:02:20.558Z,41.70
2019-04-21T19:04:48.514Z,41.70
2019-04-21T19:07:43.055Z,41.60
2019-04-21T19:13:20.513Z,42.50
2019-04-21T19:15:04.770Z,42.60
2019-04-21T19:20:18.023Z,43.00
2019-04-21T19:22:42.084Z,43.10
2019-04-21T19:25:12.949Z,43.20
2019-04-21T19:27:45.181Z,43.20
2019-04-21T19:32:39.087Z,43.00
2019-04-21T19:34:59.898Z,42.70
2019-04-21T19:37:27.969Z,42.90
2019-04-21T19:40:09.539Z,43.50
2019-04-21T19:42:35.412Z,44.30
2019-04-21T19:45:10.759Z,43.50
2019-04-21T19:47:44.992Z,43.90
2019-04-21T19:50:21.419Z,44.50
2019-04-21T19:52:37.991Z,44.20
2019-04-21T19:54:57.180Z,44.00
2019-04-21T19:57:27.246Z,43.80
2019-04-21T19:59:59.526Z,44.00
2019-04-21T20:02:26.909Z,44.30
2019-04-21T20:05:02.156Z,45.00
2019-04-21T20:07:43.853Z,45.30
2019-04-21T20:10:21.006Z,44.90
2019-04-21T20:12:45.286Z,45.60
2019-04-21T20:15:26.214Z,45.70
2019-04-21T20:17:42.341Z,45.30
2019-04-21T20:19:58.252Z,45.40
2019-04-21T20:22:32.927Z,45.80
2019-04-21T20:25:05.931Z,46.00
2019-04-21T20:27:39.057Z,45.80
2019-04-21T20:30:15.576Z,46.20
2019-04-21T20:32:53.398Z,46.80
2019-04-21T20:35:25.022Z,47.20
2019-04-21T20:37:42.311Z,47.00
2019-04-21T20:40:04.427Z,46.80
2019-04-21T20:42:44.113Z,47.20
2019-04-21T20:45:29.646Z,47.10
2019-04-21T20:47:37.754Z,47.60
2019-04-21T20:50:18.198Z,47.80
2019-04-21T20:52:48.012Z,48.00
2019-04-21T20:55:10.717Z,48.10
2019-04-21T20:57:43.330Z,48.40
2019-04-21T21:00:21.763Z,48.60
2019-04-21T21:02:55.541Z,48.50
2019-04-21T21:05:15.698Z,48.90
2019-04-21T21:07:50.246Z,48.40
2019-04-21T21:10:20.472Z,49.00
2019-04-21T21:13:00.594Z,49.00
2019-04-21T21:15:10.098Z,49.00
2019-04-21T21:20:29.494Z,49.10
2019-04-21T21:22:46.825Z,49.40
2019-04-21T21:25:25.550Z,49.80
2019-04-21T21:27:49.479Z,49.30
2019-04-21T21:30:21.599Z,49.70
2019-04-21T21:32:54.456Z,49.60
2019-04-21T21:35:24.792Z,50.30
2019-04-21T21:37:55.199Z,50.00
2019-04-21T21:40:26.864Z,50.80
2019-04-21T21:42:43.806Z,50.90
2019-04-21T21:45:17.271Z,51.10
2019-04-21T21:47:53.389Z,52.60
2019-04-21T21:50:23.342Z,53.10
2019-04-21T21:52:51.256Z,54.10
2019-04-21T21:55:11.989Z,55.40
2019-04-21T21:57:47.462Z,55.30
2019-04-21T22:00:15.368Z,56.00
2019-04-21T22:02:47.681Z,55.60
2019-04-21T22:05:25.398Z,55.50
2019-04-21T22:07:49.920Z,55.90
2019-04-21T22:10:20.141Z,56.20
2019-04-21T22:12:57.841Z,56.70
2019-04-21T22:15:24.192Z,56.80
2019-04-21T22:18:09.090Z,57.20
2019-04-21T22:20:40.143Z,57.60
2019-04-21T22:22:59.417Z,58.10
2019-04-21T22:25:26.132Z,58.20
2019-04-21T22:27:50.958Z,58.80
2019-04-21T22:30:26.955Z,58.70
2019-04-21T22:32:57.110Z,58.90
2019-04-21T22:35:28.477Z,58.90
2019-04-21T22:38:01.920Z,59.20
2019-04-21T22:40:33.972Z,59.10
2019-04-21T22:43:04.879Z,58.60
2019-04-21T22:45:23.189Z,58.80
2019-04-21T22:47:58.691Z,58.80
2019-04-21T22:50:32.659Z,58.80
2019-04-21T22:53:07.557Z,58.80
2019-04-21T22:55:35.081Z,59.30
2019-04-21T22:58:05.559Z,59.90
2019-04-21T23:00:41.366Z,60.70
2019-04-21T23:03:10.797Z,60.00
2019-04-21T23:05:38.247Z,59.80
2019-04-21T23:08:07.165Z,59.80
2019-04-21T23:10:37.088Z,59.70
2019-04-21T23:13:11.205Z,59.70
2019-04-21T23:15:43.521Z,59.30
2019-04-21T23:18:23.446Z,59.60
2019-04-21T23:20:53.695Z,59.60
2019-04-21T23:23:30.230Z,59.40
2019-04-21T23:25:53.090Z,59.70
2019-04-21T23:28:23.989Z,60.10
2019-04-21T23:31:00.861Z,60.50
2019-04-21T23:33:12.028Z,60.80
2019-04-21T23:35:41.768Z,60.40
2019-04-21T23:38:10.527Z,60.00
2019-04-21T23:40:39.778Z,60.40
2019-04-21T23:43:14.947Z,60.50
2019-04-21T23:45:41.835Z,60.60
2019-04-21T23:48:23.293Z,60.40
2019-04-21T23:50:48.828Z,62.30
2019-04-21T23:53:10.853Z,63.70
2019-04-21T23:55:41.093Z,63.90
2019-04-21T23:58:17.721Z,63.00
